Time;durP1;ratioP1;P1;durP2;ratioP2;P2;SDS_P1;SDS_P2;PMS_P1;PMS_P2;Temp;Humidity;BMP_temperature;BMP_pressure;BME280_temperature;BME280_humidity;BME280_pressure;Samples;Min_cycle;Max_cycle;Signal;HPM_P1;HPM_P2
2023/07/23 00:00:42;;;;;;;;;;;;;;;30.00;27.90;98169.06;5079041;28;19920;-87
2023/07/23 00:03:08;;;;;;;;;;;;;;;29.81;28.35;98161.81;5094255;28;19943;-87
2023/07/23 00:05:34;;;;;;;;;;;;;;;29.71;28.43;98165.09;5093822;28;20355;-87
2023/07/23 00:08:00;;;;;;;;;;;;;;;29.65;28.45;98153.59;5094111;28;19931;-87
2023/07/23 00:10:26;;;;;;;;;;;;;;;29.69;28.27;98164.75;5093748;28;19950;-87
2023/07/23 00:12:53;;;;;;;;;;;;;;;29.75;28.66;98163.69;5093901;28;19922;-87
2023/07/23 00:15:19;;;;;;;;;;;;;;;29.37;28.79;98163.31;5093863;28;20007;-87
2023/07/23 00:17:45;;;;;;;;;;;;;;;29.24;28.49;98157.78;5094305;28;19919;-87
2023/07/23 00:20:12;;;;;;;;;;;;;;;29.45;28.39;98152.50;5093825;28;19917;-89
2023/07/23 00:22:38;;;;;;;;;;;;;;;29.58;28.35;98153.91;5093848;28;19919;-86
2023/07/23 00:25:05;;;;;;;;;;;;;;;29.64;27.85;98160.50;5093405;28;19916;-87
2023/07/23 00:27:31;;;;;;;;;;;;;;;29.56;28.20;98145.13;5093790;28;19963;-86
2023/07/23 00:29:57;;;;;;;;;;;;;;;29.24;28.12;98157.00;5079353;28;19912;-87
2023/07/23 00:32:23;;;;;;;;;;;;;;;29.13;28.19;98157.41;5106233;28;20410;-87
2023/07/23 00:34:49;;;;;;;;;;;;;;;29.29;28.77;98153.56;5095455;28;19970;-86
2023/07/23 00:37:15;;;;;;;;;;;;;;;29.11;28.84;98153.47;5087660;28;20015;-86
2023/07/23 00:39:41;;;;;;;;;;;;;;;29.23;28.34;98147.72;5093327;28;20406;-86
2023/07/23 00:42:07;;;;;;;;;;;;;;;29.17;28.18;98141.06;5093548;28;19977;-86
2023/07/23 00:44:34;;;;;;;;;;;;;;;29.08;28.53;98146.69;5096787;28;19942;-86
2023/07/23 00:47:01;;;;;;;;;;;;;;;29.31;28.24;98146.16;5097620;28;20342;-86
2023/07/23 00:49:27;;;;;;;;;;;;;;;29.10;29.24;98146.25;5105735;28;19963;-86
2023/07/23 00:51:53;;;;;;;;;;;;;;;28.91;29.30;98148.22;5117151;28;19923;-87
2023/07/23 00:54:20;;;;;;;;;;;;;;;28.86;28.95;98137.53;5117725;28;19916;-87
2023/07/23 00:56:46;;;;;;;;;;;;;;;29.18;28.52;98136.22;5117862;28;19920;-87
2023/07/23 00:59:13;;;;;;;;;;;;;;;29.15;28.47;98137.94;5117908;28;19954;-87
2023/07/23 01:01:39;;;;;;;;;;;;;;;29.11;28.10;98139.31;5117874;28;19961;-86
2023/07/23 01:04:05;;;;;;;;;;;;;;;29.02;28.86;98139.31;5099297;28;19923;-86
2023/07/23 01:06:33;;;;;;;;;;;;;;;29.10;28.45;98146.25;5098027;28;19916;-86
2023/07/23 01:09:00;;;;;;;;;;;;;;;29.16;28.64;98139.50;5114709;28;19967;-86
2023/07/23 01:11:27;;;;;;;;;;;;;;;29.21;28.20;98143.78;5097409;28;19927;-86
2023/07/23 01:13:55;;;;;;;;;;;;;;;28.89;28.60;98145.09;5097198;28;19916;-87
2023/07/23 01:16:23;;;;;;;;;;;;;;;28.94;28.86;98143.69;5097297;28;19923;-87
2023/07/23 01:18:50;;;;;;;;;;;;;;;28.95;28.37;98140.38;5097179;28;19916;-86
2023/07/23 01:21:17;;;;;;;;;;;;;;;29.02;28.42;98136.47;5097125;28;20353;-87
2023/07/23 01:23:43;;;;;;;;;;;;;;;28.72;28.81;98130.41;5097037;28;19916;-86
2023/07/23 01:26:10;;;;;;;;;;;;;;;28.64;29.02;98134.75;5097377;28;19920;-86
2023/07/23 01:28:36;;;;;;;;;;;;;;;28.81;28.73;98138.13;5096882;28;19916;-86
2023/07/23 01:31:02;;;;;;;;;;;;;;;28.87;28.98;98138.31;5096864;28;19912;-86
2023/07/23 01:33:29;;;;;;;;;;;;;;;29.04;28.70;98131.13;5096736;28;19951;-86
2023/07/23 01:35:59;;;;;;;;;;;;;;;29.12;28.52;98138.09;5096042;28;19973;-86
2023/07/23 01:38:25;;;;;;;;;;;;;;;29.01;28.44;98129.28;5095630;28;19989;-86
2023/07/23 01:40:52;;;;;;;;;;;;;;;28.63;29.02;98138.06;5095497;28;20007;-86
2023/07/23 01:43:18;;;;;;;;;;;;;;;28.77;28.63;98129.03;5100818;28;19915;-86
2023/07/23 01:45:45;;;;;;;;;;;;;;;29.01;28.52;98129.28;5115782;28;19923;-86
2023/07/23 01:48:12;;;;;;;;;;;;;;;28.61;28.62;98124.38;5115711;28;19915;-86
2023/07/23 01:50:39;;;;;;;;;;;;;;;28.46;29.35;98133.84;5097172;28;19916;-85
2023/07/23 01:53:05;;;;;;;;;;;;;;;28.36;29.37;98127.38;5115953;28;19923;-86
2023/07/23 01:55:31;;;;;;;;;;;;;;;28.04;29.88;98128.59;5115133;28;19920;-85
2023/07/23 01:57:58;;;;;;;;;;;;;;;28.22;29.73;98135.59;5115717;28;20343;-85
2023/07/23 02:00:24;;;;;;;;;;;;;;;28.48;29.42;98137.00;5114724;28;19923;-86
2023/07/23 02:02:50;;;;;;;;;;;;;;;28.81;28.86;98135.31;5115476;28;19969;-85
2023/07/23 02:05:19;;;;;;;;;;;;;;;28.75;29.05;98140.00;5114947;28;19926;-86
2023/07/23 02:07:45;;;;;;;;;;;;;;;28.75;29.02;98140.00;5115409;28;19926;-85
2023/07/23 02:10:11;;;;;;;;;;;;;;;28.86;28.53;98134.72;5115419;28;20435;-86
2023/07/23 02:12:37;;;;;;;;;;;;;;;28.76;29.07;98144.38;5115436;28;19965;-86
2023/07/23 02:15:03;;;;;;;;;;;;;;;28.75;28.99;98146.41;5115361;28;19922;-86
2023/07/23 02:17:29;;;;;;;;;;;;;;;28.89;28.76;98147.13;5108008;28;20292;-86
2023/07/23 02:19:55;;;;;;;;;;;;;;;28.81;28.56;98143.78;5094621;28;19956;-86
2023/07/23 02:22:22;;;;;;;;;;;;;;;28.64;28.93;98143.25;5094904;28;19923;-86
2023/07/23 02:24:48;;;;;;;;;;;;;;;28.89;28.73;98145.09;5095251;28;19922;-86
2023/07/23 02:27:14;;;;;;;;;;;;;;;29.06;28.39;98146.38;5115071;28;19916;-86
2023/07/23 02:29:40;;;;;;;;;;;;;;;28.85;28.58;98141.59;5115203;28;19954;-86
2023/07/23 02:32:07;;;;;;;;;;;;;;;28.80;28.74;98145.03;5096579;28;19927;-86
2023/07/23 02:34:33;;;;;;;;;;;;;;;28.54;28.84;98138.75;5111917;28;19915;-86
2023/07/23 02:36:59;;;;;;;;;;;;;;;28.63;28.62;98146.53;5049614;28;1840300;-86
2023/07/23 02:39:25;;;;;;;;;;;;;;;28.37;29.34;98145.91;5115981;28;19965;-86
2023/07/23 02:41:51;;;;;;;;;;;;;;;28.27;29.66;98149.13;5097585;28;19927;-86
2023/07/23 02:44:17;;;;;;;;;;;;;;;28.32;29.21;98140.84;5115860;28;20432;-86
2023/07/23 02:46:43;;;;;;;;;;;;;;;28.56;29.04;98141.13;5115681;28;19961;-85
2023/07/23 02:49:09;;;;;;;;;;;;;;;28.64;28.92;98145.28;5115733;28;19916;-86
2023/07/23 02:51:35;;;;;;;;;;;;;;;28.77;28.89;98145.97;5114947;28;20314;-86
2023/07/23 02:54:01;;;;;;;;;;;;;;;28.51;28.95;98147.38;5115624;28;19920;-86
2023/07/23 02:56:27;;;;;;;;;;;;;;;28.43;29.52;98141.22;5097394;28;19968;-86
2023/07/23 02:58:53;;;;;;;;;;;;;;;28.68;28.89;98134.63;5115720;28;20014;-86
2023/07/23 03:01:20;;;;;;;;;;;;;;;28.47;29.20;98143.91;5097016;28;19919;-85
2023/07/23 03:03:47;;;;;;;;;;;;;;;28.45;29.08;98135.13;5115482;28;20443;-85
2023/07/23 03:06:16;;;;;;;;;;;;;;;28.42;29.02;98136.84;5114189;28;20367;-85
2023/07/23 03:08:42;;;;;;;;;;;;;;;28.44;29.47;98131.50;5106246;28;19931;-85
2023/07/23 03:11:08;;;;;;;;;;;;;;;28.42;29.15;98138.88;5094890;28;20395;-85
2023/07/23 03:13:34;;;;;;;;;;;;;;;28.70;28.57;98129.31;5095034;28;19920;-85
2023/07/23 03:16:01;;;;;;;;;;;;;;;28.75;28.75;98137.94;5094672;28;19965;-85
2023/07/23 03:18:28;;;;;;;;;;;;;;;28.58;29.10;98133.78;5094788;28;19920;-86
2023/07/23 03:20:54;;;;;;;;;;;;;;;28.59;29.32;98115.59;5094705;28;19923;-86
2023/07/23 03:23:20;;;;;;;;;;;;;;;28.61;29.33;98124.38;5094673;28;19916;-86
2023/07/23 03:25:46;;;;;;;;;;;;;;;28.65;29.43;98127.88;5095109;28;19926;-86
2023/07/23 03:28:12;;;;;;;;;;;;;;;28.60;29.45;98134.13;5094686;28;19938;-85
2023/07/23 03:30:38;;;;;;;;;;;;;;;28.65;29.20;98133.53;5094588;28;20375;-86
2023/07/23 03:33:04;;;;;;;;;;;;;;;28.92;29.00;98132.03;5093271;28;19917;-86
2023/07/23 03:35:30;;;;;;;;;;;;;;;28.79;29.36;98135.00;5099951;28;19992;-86
2023/07/23 03:37:56;;;;;;;;;;;;;;;28.83;29.08;98135.63;5114817;28;19989;-86
2023/07/23 03:40:22;;;;;;;;;;;;;;;28.59;29.71;98135.38;5114761;28;20413;-86
2023/07/23 03:42:48;;;;;;;;;;;;;;;28.53;29.94;98137.19;5113888;28;19916;-86
2023/07/23 03:45:15;;;;;;;;;;;;;;;28.46;30.14;98125.38;5114367;28;20278;-85
2023/07/23 03:47:41;;;;;;;;;;;;;;;28.72;30.54;98133.25;5114747;28;19939;-85
2023/07/23 03:50:07;;;;;;;;;;;;;;;29.20;29.86;98133.72;5114530;28;19916;-85
2023/07/23 03:52:33;;;;;;;;;;;;;;;29.65;29.75;98136.63;5114553;28;19919;-85
2023/07/23 03:54:59;;;;;;;;;;;;;;;29.78;29.41;98140.13;5114515;28;19915;-86
2023/07/23 03:57:25;;;;;;;;;;;;;;;30.07;28.82;98131.13;5114697;28;20309;-86
2023/07/23 03:59:51;;;;;;;;;;;;;;;29.92;29.35;98133.81;5113560;28;19920;-87
2023/07/23 04:02:17;;;;;;;;;;;;;;;30.01;29.37;98138.72;5114546;28;19923;-86
2023/07/23 04:04:43;;;;;;;;;;;;;;;30.36;29.42;98137.13;5114073;28;19916;-86
2023/07/23 04:07:09;;;;;;;;;;;;;;;30.54;28.94;98139.09;5114327;28;20329;-86
2023/07/23 04:09:35;;;;;;;;;;;;;;;30.71;27.98;98141.06;5114246;28;20330;-86
2023/07/23 04:12:01;;;;;;;;;;;;;;;30.89;28.78;98139.47;5114333;28;20326;-86
2023/07/23 04:14:27;;;;;;;;;;;;;;;30.82;28.78;98139.78;5114080;28;20002;-86
2023/07/23 04:16:54;;;;;;;;;;;;;;;30.74;28.74;98145.78;5103478;28;19976;-86
2023/07/23 04:19:20;;;;;;;;;;;;;;;30.99;27.64;98141.00;5093911;28;20010;-86
2023/07/23 04:21:46;;;;;;;;;;;;;;;30.89;28.46;98140.25;5093786;28;19920;-86
2023/07/23 04:24:12;;;;;;;;;;;;;;;31.02;28.99;98140.03;5093763;28;19943;-86
2023/07/23 04:26:38;;;;;;;;;;;;;;;31.10;28.67;98144.09;5093758;28;20034;-87
2023/07/23 04:29:04;;;;;;;;;;;;;;;31.40;27.36;98143.75;5093554;28;19916;-87
2023/07/23 04:31:31;;;;;;;;;;;;;;;31.31;28.38;98137.34;5093765;28;20402;-87
2023/07/23 04:33:58;;;;;;;;;;;;;;;31.36;28.31;98145.22;5076132;28;19978;-87
2023/07/23 04:36:24;;;;;;;;;;;;;;;31.37;27.86;98141.09;5093328;28;20275;-87
2023/07/23 04:38:50;;;;;;;;;;;;;;;31.31;28.46;98134.53;5093737;28;20383;-87
2023/07/23 04:41:16;;;;;;;;;;;;;;;31.33;29.31;98137.66;5093628;28;20315;-88
2023/07/23 04:43:42;;;;;;;;;;;;;;;31.65;27.07;98138.91;5093357;28;20012;-87
2023/07/23 04:46:08;;;;;;;;;;;;;;;31.64;28.79;98129.59;5093508;28;19951;-87
2023/07/23 04:48:35;;;;;;;;;;;;;;;31.82;28.00;98122.97;5093584;28;19923;-88
2023/07/23 04:51:02;;;;;;;;;;;;;;;32.15;27.99;98123.66;5094028;28;19947;-87
2023/07/23 04:53:31;;;;;;;;;;;;;;;32.18;28.01;98119.03;5075469;28;19924;-88
2023/07/23 04:55:58;;;;;;;;;;;;;;;32.14;27.64;98116.38;5093447;28;19999;-88
2023/07/23 04:58:25;;;;;;;;;;;;;;;31.98;27.84;98123.31;5093313;28;19995;-88
2023/07/23 05:00:51;;;;;;;;;;;;;;;31.97;27.82;98118.91;5093452;28;20011;-88
2023/07/23 05:03:18;;;;;;;;;;;;;;;32.01;27.94;98127.25;5093521;28;19912;-88
2023/07/23 05:05:51;;;;;;;;;;;;;;;32.17;28.10;98121.09;5093575;28;19920;-88
2023/07/23 05:08:17;;;;;;;;;;;;;;;32.45;27.85;98115.91;5098666;28;19930;-88
2023/07/23 05:10:43;;;;;;;;;;;;;;;32.69;27.51;98117.41;5093323;28;19916;-89
2023/07/23 05:13:10;;;;;;;;;;;;;;;32.46;26.84;98118.28;5093170;28;19989;-89
2023/07/23 05:15:36;;;;;;;;;;;;;;;32.61;27.87;98124.75;5093320;28;19916;-88
2023/07/23 05:18:02;;;;;;;;;;;;;;;32.55;27.63;98123.09;5093326;28;20015;-89
2023/07/23 05:20:29;;;;;;;;;;;;;;;32.81;27.08;98126.09;5093494;28;19965;-89
2023/07/23 05:22:55;;;;;;;;;;;;;;;32.72;27.00;98122.09;5093144;28;19930;-89
2023/07/23 05:25:21;;;;;;;;;;;;;;;32.51;27.17;98123.28;5093727;28;19963;-89
2023/07/23 05:27:50;;;;;;;;;;;;;;;32.69;27.96;98123.09;5093015;28;19924;-89
2023/07/23 05:30:16;;;;;;;;;;;;;;;33.13;27.28;98119.38;5095641;28;20039;-89
2023/07/23 05:32:43;;;;;;;;;;;;;;;33.29;27.33;98118.84;5114815;28;19919;-90
2023/07/23 05:35:09;;;;;;;;;;;;;;;33.49;25.96;98120.91;5114437;28;19959;-89
2023/07/23 05:37:35;;;;;;;;;;;;;;;33.39;26.60;98121.06;5096718;28;20011;-89
2023/07/23 05:40:03;;;;;;;;;;;;;;;33.36;26.93;98126.94;5097153;28;20287;-89
2023/07/23 05:42:29;;;;;;;;;;;;;;;33.67;26.72;98123.50;5112085;28;19916;-89
2023/07/23 05:44:55;;;;;;;;;;;;;;;33.74;26.57;98125.94;5117266;28;19923;-89
2023/07/23 05:47:21;;;;;;;;;;;;;;;33.72;25.91;98117.09;5116990;28;19916;-88
2023/07/23 05:49:47;;;;;;;;;;;;;;;33.50;27.07;98126.09;5116939;28;19920;-89
2023/07/23 05:52:16;;;;;;;;;;;;;;;33.57;27.28;98120.03;5116764;27;19920;-89
2023/07/23 05:54:42;;;;;;;;;;;;;;;33.49;25.56;98120.91;5092293;28;19931;-89
2023/07/23 05:57:08;;;;;;;;;;;;;;;33.45;26.71;98126.81;5108147;28;19920;-89
2023/07/23 05:59:34;;;;;;;;;;;;;;;33.38;26.53;98118.69;5100434;28;20372;-89
2023/07/23 06:02:00;;;;;;;;;;;;;;;33.47;27.18;98124.25;5096331;28;19942;-89
2023/07/23 06:04:26;;;;;;;;;;;;;;;33.38;26.79;98119.47;5096272;28;19985;-89
2023/07/23 06:06:52;;;;;;;;;;;;;;;33.22;26.81;98119.25;5103745;28;19920;-88
2023/07/23 06:09:18;;;;;;;;;;;;;;;33.31;26.59;98122.75;5116542;28;19927;-89
2023/07/23 06:11:44;;;;;;;;;;;;;;;33.28;26.77;98126.59;5109140;28;19916;-88
2023/07/23 06:14:10;;;;;;;;;;;;;;;33.45;27.30;98126.81;5096185;28;19916;-90
2023/07/23 06:16:36;;;;;;;;;;;;;;;33.37;27.09;98128.53;5112252;28;19963;-89
2023/07/23 06:19:02;;;;;;;;;;;;;;;33.58;26.36;98123.66;5105515;28;19916;-89
2023/07/23 06:21:28;;;;;;;;;;;;;;;33.56;26.33;98121.28;5096313;28;20288;-89
2023/07/23 06:23:54;;;;;;;;;;;;;;;33.85;26.69;98120.34;5096015;28;19923;-90
2023/07/23 06:26:21;;;;;;;;;;;;;;;33.77;26.94;98114.31;5095642;28;19916;-89
2023/07/23 06:28:47;;;;;;;;;;;;;;;33.55;26.74;98118.94;5095699;28;19920;-90
2023/07/23 06:31:13;;;;;;;;;;;;;;;33.63;27.25;98118.00;5095785;28;19961;-89
2023/07/23 06:33:39;;;;;;;;;;;;;;;33.90;25.88;98123.28;5096438;28;19916;-90
2023/07/23 06:36:05;;;;;;;;;;;;;;;33.96;25.78;98115.56;5095570;28;19956;-90
2023/07/23 06:38:31;;;;;;;;;;;;;;;34.14;25.90;98105.16;5112380;28;20032;-90
2023/07/23 06:40:57;;;;;;;;;;;;;;;34.17;25.55;98121.28;5114513;28;19919;-89
2023/07/23 06:43:23;;;;;;;;;;;;;;;34.10;25.49;98105.38;5116000;28;19916;-89
2023/07/23 06:45:50;;;;;;;;;;;;;;;33.96;25.42;98115.56;5116064;28;20018;-90
2023/07/23 06:48:17;;;;;;;;;;;;;;;34.05;25.59;98117.53;5116016;28;19923;-89
2023/07/23 06:50:47;;;;;;;;;;;;;;;34.17;26.14;98116.31;5114937;28;19940;-89
2023/07/23 06:53:13;;;;;;;;;;;;;;;34.36;25.51;98119.63;5115647;28;20427;-90
2023/07/23 06:55:58;;;;;;;;;;;;;;;34.30;26.75;98115.94;5115373;28;19916;-89
2023/07/23 06:58:24;;;;;;;;;;;;;;;34.18;25.37;98114.25;5115569;28;20424;-90
2023/07/23 07:00:50;;;;;;;;;;;;;;;34.14;26.45;98110.88;5115646;28;19955;-90
2023/07/23 07:03:16;;;;;;;;;;;;;;;34.12;25.52;98111.38;5115685;28;20398;-89
2023/07/23 07:05:42;;;;;;;;;;;;;;;34.41;26.09;98104.63;5097109;28;19959;-90
2023/07/23 07:08:08;;;;;;;;;;;;;;;34.57;26.56;98106.88;5131018;27;20005;-90
2023/07/23 07:10:34;;;;;;;;;;;;;;;34.46;25.75;98106.75;5117540;27;19932;-90
2023/07/23 07:13:00;;;;;;;;;;;;;;;34.49;25.97;98108.63;5136017;27;19915;-90
2023/07/23 07:15:26;;;;;;;;;;;;;;;34.82;24.98;98100.38;5135808;27;19934;-90
2023/07/23 07:17:52;;;;;;;;;;;;;;;34.64;25.00;98109.28;5135840;27;19916;-91
2023/07/23 07:20:18;;;;;;;;;;;;;;;34.43;26.27;98105.69;5118178;27;19916;-90
2023/07/23 07:22:44;;;;;;;;;;;;;;;34.71;25.71;98100.25;5113937;28;19944;-90
2023/07/23 07:25:10;;;;;;;;;;;;;;;35.21;26.14;98097.78;5115136;28;19920;-90
2023/07/23 07:27:36;;;;;;;;;;;;;;;35.10;25.66;98098.47;5115154;28;20014;-91
2023/07/23 07:30:03;;;;;;;;;;;;;;;35.13;25.25;98097.47;5115023;28;19951;-90
2023/07/23 07:32:29;;;;;;;;;;;;;;;35.18;26.68;98098.78;5114934;28;19960;-90
2023/07/23 07:34:55;;;;;;;;;;;;;;;35.49;26.05;98090.13;5114811;28;19916;-90
2023/07/23 07:37:21;;;;;;;;;;;;;;;35.63;27.32;98085.56;5114417;28;19923;-90
2023/07/23 07:39:47;;;;;;;;;;;;;;;35.94;25.08;98091.88;5114053;28;19924;-90
2023/07/23 07:42:13;;;;;;;;;;;;;;;36.51;24.67;98087.84;5114719;28;20291;-90
2023/07/23 07:44:39;;;;;;;;;;;;;;;36.97;23.38;98079.53;5115045;28;20010;-89
2023/07/23 07:47:05;;;;;;;;;;;;;;;36.79;23.74;98082.91;5114492;28;20402;-89
2023/07/23 07:49:31;;;;;;;;;;;;;;;36.84;23.12;98081.34;5114651;28;19916;-90
2023/07/23 07:51:57;;;;;;;;;;;;;;;36.67;23.78;98072.78;5114265;28;19955;-91
2023/07/23 07:54:23;;;;;;;;;;;;;;;36.61;25.47;98081.38;5098285;28;20010;-91
2023/07/23 07:56:50;;;;;;;;;;;;;;;36.67;25.14;98084.22;5076299;28;20441;-90
2023/07/23 07:59:16;;;;;;;;;;;;;;;37.12;24.19;98082.91;5094379;28;19916;-89
2023/07/23 08:01:42;;;;;;;;;;;;;;;37.68;23.88;98082.72;5075961;28;19927;-89
2023/07/23 08:04:09;;;;;;;;;;;;;;;37.72;23.32;98081.13;5094121;28;19919;-89
2023/07/23 08:06:36;;;;;;;;;;;;;;;37.74;23.40;98078.50;5094010;28;19928;-89
2023/07/23 08:09:03;;;;;;;;;;;;;;;37.96;23.67;98078.44;5094066;28;19945;-91
2023/07/23 08:11:30;;;;;;;;;;;;;;;37.83;22.96;98086.06;5093997;28;20420;-89
2023/07/23 08:13:56;;;;;;;;;;;;;;;37.67;23.27;98073.34;5094368;28;19955;-90
2023/07/23 08:16:22;;;;;;;;;;;;;;;38.07;23.08;98076.81;5094040;28;19919;-90
2023/07/23 08:18:48;;;;;;;;;;;;;;;38.66;23.21;98071.94;5109784;28;19959;-91
2023/07/23 08:21:15;;;;;;;;;;;;;;;38.67;22.35;98075.59;5113992;28;19968;-90
2023/07/23 08:23:41;;;;;;;;;;;;;;;39.11;21.92;98072.31;5114068;28;20015;-90
2023/07/23 08:26:07;;;;;;;;;;;;;;;38.93;20.18;98066.53;5113846;28;19927;-88
2023/07/23 08:28:37;;;;;;;;;;;;;;;39.07;21.67;98071.81;5114104;28;19961;-90
2023/07/23 08:31:03;;;;;;;;;;;;;;;38.87;21.45;98062.91;5113250;28;19922;-89
2023/07/23 08:33:30;;;;;;;;;;;;;;;38.67;20.13;98069.88;5114011;28;19969;-88
2023/07/23 08:35:57;;;;;;;;;;;;;;;38.79;20.23;98064.81;5113598;28;19967;-91
2023/07/23 08:38:24;;;;;;;;;;;;;;;38.65;20.03;98058.91;5113761;28;20019;-90
2023/07/23 08:41:01;;;;;;;;;;;;;;;38.76;21.19;98055.19;5113967;28;19920;-90
2023/07/23 08:43:27;;;;;;;;;;;;;;;38.57;20.69;98054.28;5114206;28;19939;-90
2023/07/23 08:46:05;;;;;;;;;;;;;;;38.63;19.41;98064.41;5113877;28;19916;-90
2023/07/23 08:48:45;;;;;;;;;;;;;;;38.34;20.48;98056.56;5106419;28;19916;-90
2023/07/23 08:51:12;;;;;;;;;;;;;;;38.34;19.86;98050.06;5093157;28;19923;-89
2023/07/23 08:53:38;;;;;;;;;;;;;;;38.59;19.78;98057.41;5092171;28;19962;-89
2023/07/23 08:56:04;;;;;;;;;;;;;;;38.40;19.34;98059.38;5093534;28;19916;-90
2023/07/23 08:58:31;;;;;;;;;;;;;;;37.91;19.91;98058.38;5093460;28;20010;-90
2023/07/23 09:00:57;;;;;;;;;;;;;;;38.24;19.83;98058.19;5093802;28;19987;-90
2023/07/23 09:03:23;;;;;;;;;;;;;;;38.16;19.24;98056.41;5093543;28;19916;-90
2023/07/23 09:05:49;;;;;;;;;;;;;;;38.32;19.14;98052.69;5097065;28;19963;-90
2023/07/23 09:08:15;;;;;;;;;;;;;;;38.31;19.42;98051.09;5097522;28;19916;-89
2023/07/23 09:10:41;;;;;;;;;;;;;;;38.38;19.36;98051.31;5097302;28;19916;-89
2023/07/23 09:13:13;;;;;;;;;;;;;;;38.26;18.82;98049.81;5097345;28;19920;-86
2023/07/23 09:15:40;;;;;;;;;;;;;;;38.47;20.41;98053.84;5097283;28;19916;-91
2023/07/23 09:18:07;;;;;;;;;;;;;;;38.81;19.29;98050.72;5101958;28;20371;-90
2023/07/23 09:20:33;;;;;;;;;;;;;;;38.99;19.08;98053.66;5117615;28;20001;-89
2023/07/23 09:23:06;;;;;;;;;;;;;;;38.94;18.83;98053.69;5116917;28;19916;-90
2023/07/23 09:25:32;;;;;;;;;;;;;;;39.20;18.74;98062.59;5117460;28;19916;-90
2023/07/23 09:27:58;;;;;;;;;;;;;;;39.32;18.46;98053.31;5099153;28;19985;-90
2023/07/23 09:30:24;;;;;;;;;;;;;;;38.45;18.25;98044.22;5117312;28;19916;-89
2023/07/23 09:32:57;;;;;;;;;;;;;;;38.49;17.81;98050.44;5117110;28;19920;-88
2023/07/23 09:35:24;;;;;;;;;;;;;;;38.26;18.93;98055.53;5117017;28;19931;-89
2023/07/23 09:37:57;;;;;;;;;;;;;;;38.26;18.99;98046.16;5117251;28;19916;-89
2023/07/23 09:40:35;;;;;;;;;;;;;;;38.53;19.02;98040.22;5116285;28;19916;-90
2023/07/23 09:43:01;;;;;;;;;;;;;;;38.45;17.56;98038.47;5117107;28;19927;-87
2023/07/23 09:45:29;;;;;;;;;;;;;;;38.41;17.64;98032.25;5116976;28;19916;-87
2023/07/23 09:47:55;;;;;;;;;;;;;;;38.62;19.05;98034.16;5098495;28;19955;-90
2023/07/23 09:50:21;;;;;;;;;;;;;;;38.60;19.67;98027.41;5116805;28;19916;-90
2023/07/23 09:52:50;;;;;;;;;;;;;;;38.46;17.80;98032.19;5116940;28;19927;-90
2023/07/23 09:55:17;;;;;;;;;;;;;;;38.77;17.42;98022.28;5116781;28;19916;-88
2023/07/23 09:57:45;;;;;;;;;;;;;;;38.62;17.59;98030.50;5116032;28;19915;-87
2023/07/23 10:00:12;;;;;;;;;;;;;;;38.61;17.34;98034.69;5116731;28;20496;-90
2023/07/23 10:02:39;;;;;;;;;;;;;;;38.71;18.74;98035.94;5116382;28;20375;-91
2023/07/23 10:05:06;;;;;;;;;;;;;;;38.90;16.30;98024.50;5116649;28;19924;-91
2023/07/23 10:07:32;;;;;;;;;;;;;;;38.96;15.80;98026.00;5116662;28;20379;-90
2023/07/23 10:09:59;;;;;;;;;;;;;;;39.36;17.45;98025.03;5116574;28;19916;-90
2023/07/23 10:12:25;;;;;;;;;;;;;;;39.69;16.70;98029.59;5116685;28;19916;-90
2023/07/23 10:14:51;;;;;;;;;;;;;;;39.75;16.45;98027.41;5115390;28;20006;-89
2023/07/23 10:17:18;;;;;;;;;;;;;;;39.56;16.32;98020.84;5116325;28;19919;-91
2023/07/23 10:19:45;;;;;;;;;;;;;;;39.21;16.46;98024.69;5116391;28;19924;-89
2023/07/23 10:22:11;;;;;;;;;;;;;;;39.25;16.76;98028.06;5116479;28;20302;-90
2023/07/23 10:24:38;;;;;;;;;;;;;;;39.46;18.72;98030.41;5116374;28;19926;-90
2023/07/23 10:27:14;;;;;;;;;;;;;;;39.72;16.37;98024.88;5116210;28;19916;-90
2023/07/23 10:29:41;;;;;;;;;;;;;;;40.11;17.15;98015.69;5115756;28;19922;-90
2023/07/23 10:32:23;;;;;;;;;;;;;;;40.31;16.54;98018.75;5095558;28;19916;-89
2023/07/23 10:34:49;;;;;;;;;;;;;;;40.58;16.05;98011.78;5103158;28;19923;-89
2023/07/23 10:37:19;;;;;;;;;;;;;;;39.93;16.59;97997.88;5115947;28;19919;-91
2023/07/23 10:39:46;;;;;;;;;;;;;;;39.42;16.18;98027.84;5115948;28;20367;-91
2023/07/23 10:42:27;;;;;;;;;;;;;;;39.30;17.89;98007.09;5097697;28;20302;-89
2023/07/23 10:45:12;;;;;;;;;;;;;;;39.54;15.21;98008.38;5116011;28;19923;-89
2023/07/23 10:47:38;;;;;;;;;;;;;;;40.07;17.12;98000.84;5107519;28;19939;-90
2023/07/23 10:50:11;;;;;;;;;;;;;;;40.14;15.51;98006.75;5095393;28;19920;-90
2023/07/23 10:52:37;;;;;;;;;;;;;;;40.18;15.29;98003.53;5095434;28;20011;-90
2023/07/23 10:55:04;;;;;;;;;;;;;;;39.65;15.56;98002.50;5095395;28;19923;-90
2023/07/23 10:57:31;;;;;;;;;;;;;;;39.13;15.65;98002.84;5095333;28;20287;-88
2023/07/23 10:59:57;;;;;;;;;;;;;;;39.21;15.81;98004.59;5094933;28;19924;-90
2023/07/23 11:02:26;;;;;;;;;;;;;;;39.36;16.62;98007.03;5095347;28;20389;-89
2023/07/23 11:04:55;;;;;;;;;;;;;;;39.24;16.24;98002.72;5095583;28;19931;-88
2023/07/23 11:07:25;;;;;;;;;;;;;;;38.72;16.38;97992.31;5095035;28;19952;-88
2023/07/23 11:09:54;;;;;;;;;;;;;;;38.58;16.19;97996.34;5095064;28;20410;-89
2023/07/23 11:12:21;;;;;;;;;;;;;;;39.02;16.31;98000.88;5095156;28;19924;-89
2023/07/23 11:14:47;;;;;;;;;;;;;;;39.16;16.30;97998.94;5094695;28;20057;-88
2023/07/23 11:17:13;;;;;;;;;;;;;;;39.67;15.80;97989.13;5095036;28;19925;-89
2023/07/23 11:19:44;;;;;;;;;;;;;;;40.30;17.67;97990.53;5085134;28;20282;-90
2023/07/23 11:22:12;;;;;;;;;;;;;;;40.67;16.17;97979.69;5114259;28;19916;-90
2023/07/23 11:24:40;;;;;;;;;;;;;;;41.18;16.15;97971.63;5109305;27;19920;-88
2023/07/23 11:27:06;;;;;;;;;;;;;;;41.06;15.61;97970.31;5106355;28;19920;-91
2023/07/23 11:29:32;;;;;;;;;;;;;;;40.92;14.43;97965.88;5094688;28;20273;-90
2023/07/23 11:31:59;;;;;;;;;;;;;;;40.74;15.77;97966.72;5108015;28;19957;-89
2023/07/23 11:34:25;;;;;;;;;;;;;;;40.36;15.45;97965.28;5115113;28;20333;-89
2023/07/23 11:36:53;;;;;;;;;;;;;;;40.58;15.32;97965.72;5093219;28;19924;-90
2023/07/23 11:39:19;;;;;;;;;;;;;;;40.99;15.08;97965.22;5066083;28;19916;-91
2023/07/23 11:41:46;;;;;;;;;;;;;;;40.74;15.12;97963.06;5054250;28;20431;-90
2023/07/23 11:44:12;;;;;;;;;;;;;;;41.08;15.56;97964.75;5054097;28;19918;-91
2023/07/23 11:46:39;;;;;;;;;;;;;;;41.11;15.72;97962.88;5054127;28;19917;-89
2023/07/23 11:49:06;;;;;;;;;;;;;;;40.63;15.83;97955.44;5073474;28;19928;-90
2023/07/23 11:51:33;;;;;;;;;;;;;;;40.85;15.63;97952.13;5074017;28;20015;-89
2023/07/23 11:54:05;;;;;;;;;;;;;;;40.83;15.14;97951.09;5073915;28;19917;-89
2023/07/23 11:56:34;;;;;;;;;;;;;;;40.64;16.95;97951.19;5058219;28;19932;-90
2023/07/23 11:59:03;;;;;;;;;;;;;;;40.80;15.92;97949.34;5053724;28;19958;-89
2023/07/23 12:01:30;;;;;;;;;;;;;;;40.55;15.70;97948.75;5054089;28;19916;-90
2023/07/23 12:03:58;;;;;;;;;;;;;;;40.67;16.03;97944.34;5054040;28;19955;-88
2023/07/23 12:06:24;;;;;;;;;;;;;;;40.48;15.55;97935.03;5053705;28;19925;-89
2023/07/23 12:08:51;;;;;;;;;;;;;;;40.11;15.58;97933.03;5053775;28;19917;-87
2023/07/23 12:11:17;;;;;;;;;;;;;;;40.59;16.12;97932.72;5053784;28;20032;-89
2023/07/23 12:13:50;;;;;;;;;;;;;;;40.56;15.24;97933.06;5054041;28;19939;-90
2023/07/23 12:16:34;;;;;;;;;;;;;;;40.43;15.42;97925.16;5053693;28;19924;-90
2023/07/23 12:19:01;;;;;;;;;;;;;;;39.55;15.87;97935.19;5053871;28;19920;-89
2023/07/23 12:21:27;;;;;;;;;;;;;;;39.03;16.89;97938.47;5053755;28;20011;-89
2023/07/23 12:23:53;;;;;;;;;;;;;;;39.29;16.89;97933.72;5053595;28;20002;-89
2023/07/23 12:26:19;;;;;;;;;;;;;;;39.15;15.98;97934.16;5053497;28;20400;-90
2023/07/23 12:28:45;;;;;;;;;;;;;;;39.40;16.03;97932.00;5053441;28;19962;-91
2023/07/23 12:31:11;;;;;;;;;;;;;;;39.15;15.99;97925.53;5053485;28;19916;-89
2023/07/23 12:33:37;;;;;;;;;;;;;;;39.16;16.68;97933.59;5053594;28;19928;-90
2023/07/23 12:36:03;;;;;;;;;;;;;;;39.68;17.01;97936.03;5083286;28;19973;-91
2023/07/23 12:38:29;;;;;;;;;;;;;;;40.14;17.64;97928.28;5115531;28;19920;-91
2023/07/23 12:40:55;;;;;;;;;;;;;;;40.03;16.53;97920.59;5118617;28;19912;-89
2023/07/23 12:43:21;;;;;;;;;;;;;;;40.04;15.93;97919.28;5117995;28;20291;-90
2023/07/23 12:45:47;;;;;;;;;;;;;;;40.16;16.09;97911.25;5117457;28;19923;-91